createdAt,value
2022-11-24T00:02:29.782Z,12.63
2022-11-24T00:05:31.970Z,12.85
2022-11-24T00:08:35.363Z,11.75
2022-11-24T00:11:38.010Z,12.30
2022-11-24T00:14:40.325Z,12.10
2022-11-24T00:17:42.448Z,11.88
2022-11-24T00:20:52.505Z,12.80
2022-11-24T00:26:57.208Z,12.40
2022-11-24T00:29:59.711Z,12.20
2022-11-24T00:33:01.919Z,12.18
2022-11-24T00:36:04.295Z,12.32
2022-11-24T00:39:08.930Z,11.95
2022-11-24T00:42:11.156Z,11.65
2022-11-24T00:45:14.344Z,11.38
2022-11-24T00:48:16.729Z,11.85
2022-11-24T00:51:20.567Z,11.02
2022-11-24T00:54:23.022Z,12.32
2022-11-24T00:57:25.414Z,11.82
2022-11-24T01:00:27.638Z,12.13
2022-11-24T01:03:29.800Z,12.38
2022-11-24T01:06:32.892Z,11.18
2022-11-24T01:09:35.213Z,11.68
2022-11-24T01:12:37.383Z,11.20
2022-11-24T01:15:40.147Z,11.93
2022-11-24T01:18:42.442Z,11.10
2022-11-24T01:21:44.738Z,11.55
2022-11-24T01:24:47.018Z,10.85
2022-11-24T01:27:49.218Z,11.15
2022-11-24T01:31:02.212Z,11.13
2022-11-24T01:34:04.415Z,10.98
2022-11-24T01:37:06.559Z,11.05
2022-11-24T01:40:09.564Z,11.65
2022-11-24T01:43:22.539Z,12.00
2022-11-24T01:46:43.444Z,10.55
2022-11-24T01:49:49.130Z,10.27
2022-11-24T01:52:55.343Z,9.23
2022-11-24T01:55:58.468Z,9.50
2022-11-24T01:59:02.800Z,10.70
2022-11-24T02:02:05.537Z,10.82
2022-11-24T02:05:15.957Z,10.90
2022-11-24T02:08:35.624Z,10.25
2022-11-24T02:11:40.556Z,11.10
2022-11-24T02:14:44.813Z,9.80
2022-11-24T02:17:47.184Z,9.10
2022-11-24T02:20:49.526Z,9.45
2022-11-24T02:24:02.339Z,9.35
2022-11-24T02:27:04.664Z,10.48
2022-11-24T02:30:07.261Z,9.88
2022-11-24T02:33:11.379Z,8.95
2022-11-24T02:36:13.573Z,8.43
2022-11-24T02:39:16.368Z,8.52
2022-11-24T02:42:18.612Z,9.20
2022-11-24T02:45:21.915Z,9.52
2022-11-24T02:48:24.366Z,7.68
2022-11-24T02:51:26.585Z,8.07
2022-11-24T02:54:29.001Z,8.98
2022-11-24T02:57:31.376Z,8.15
2022-11-24T03:00:33.611Z,8.93
2022-11-24T03:03:35.915Z,7.88
2022-11-24T03:06:38.322Z,7.75
2022-11-24T03:09:40.530Z,8.20
2022-11-24T03:12:42.712Z,7.70
2022-11-24T03:15:44.955Z,6.75
2022-11-24T03:18:48.385Z,6.85
2022-11-24T03:21:50.549Z,7.10
2022-11-24T03:24:53.777Z,6.85
2022-11-24T03:27:58.227Z,7.13
2022-11-24T03:31:00.420Z,6.97
2022-11-24T03:34:02.675Z,7.45
2022-11-24T03:37:04.888Z,6.40
2022-11-24T03:40:07.596Z,6.30
2022-11-24T03:43:09.722Z,7.20
2022-11-24T03:46:12.858Z,6.70
2022-11-24T03:49:15.068Z,6.75
2022-11-24T03:52:17.346Z,6.25
2022-11-24T03:55:19.479Z,5.18
2022-11-24T03:58:21.679Z,6.15
2022-11-24T04:01:23.819Z,5.68
2022-11-24T04:04:26.073Z,5.25
2022-11-24T04:07:28.318Z,5.97
2022-11-24T04:10:32.185Z,5.65
2022-11-24T04:13:34.420Z,5.32
2022-11-24T04:16:37.405Z,5.55
2022-11-24T04:19:39.705Z,5.88
2022-11-24T04:22:42.564Z,5.97
2022-11-24T04:25:48.024Z,6.35
2022-11-24T04:28:50.257Z,5.75
2022-11-24T04:31:52.455Z,5.93
2022-11-24T04:34:54.626Z,4.63
2022-11-24T04:37:56.778Z,5.53
2022-11-24T04:41:05.722Z,5.45
2022-11-24T04:44:07.855Z,5.97
2022-11-24T04:47:17.096Z,6.70
2022-11-24T04:50:19.316Z,5.95
2022-11-24T04:53:22.120Z,5.95
2022-11-24T04:56:24.301Z,6.20
2022-11-24T04:59:26.513Z,5.95
2022-11-24T05:02:28.705Z,6.00
2022-11-24T05:05:31.015Z,5.93
2022-11-24T05:08:33.231Z,5.68
2022-11-24T05:11:35.546Z,6.00
2022-11-24T05:14:37.748Z,5.60
2022-11-24T05:17:40.212Z,5.88
2022-11-24T05:20:44.826Z,5.88
2022-11-24T05:23:46.994Z,5.55
2022-11-24T05:26:49.090Z,5.82
2022-11-24T05:29:51.330Z,5.57
2022-11-24T05:32:53.625Z,5.88
2022-11-24T05:35:59.828Z,6.30
2022-11-24T05:39:01.989Z,4.93
2022-11-24T05:42:24.898Z,5.97
2022-11-24T05:45:27.197Z,5.53
2022-11-24T05:48:29.559Z,5.43
2022-11-24T05:51:33.457Z,5.45
2022-11-24T05:54:35.924Z,5.28
2022-11-24T05:57:38.509Z,5.63
2022-11-24T06:00:41.072Z,5.43
2022-11-24T06:03:43.210Z,6.32
2022-11-24T06:06:46.892Z,6.15
2022-11-24T06:09:49.132Z,5.53
2022-11-24T06:12:51.522Z,5.30
2022-11-24T06:15:53.708Z,4.90
2022-11-24T06:18:56.028Z,4.63
2022-11-24T06:21:58.240Z,5.88
2022-11-24T06:25:00.348Z,5.13
2022-11-24T06:28:05.241Z,5.25
2022-11-24T06:31:07.416Z,5.05
2022-11-24T06:34:11.806Z,5.07
2022-11-24T06:37:14.158Z,5.90
2022-11-24T06:40:17.078Z,5.70
2022-11-24T06:43:19.287Z,5.22
2022-11-24T06:46:21.603Z,5.20
2022-11-24T06:49:23.891Z,4.88
2022-11-24T06:52:26.136Z,5.43
2022-11-24T06:55:28.304Z,5.63
2022-11-24T06:58:30.501Z,6.07
2022-11-24T07:01:32.719Z,5.45
2022-11-24T07:04:35.113Z,5.10
2022-11-24T07:07:37.525Z,5.65
2022-11-24T07:10:40.633Z,5.85
2022-11-24T07:13:44.014Z,5.68
2022-11-24T07:16:46.234Z,5.10
2022-11-24T07:19:48.490Z,5.25
2022-11-24T07:22:54.593Z,6.03
2022-11-24T07:25:56.839Z,5.35
2022-11-24T07:28:59.056Z,5.60
2022-11-24T07:32:05.461Z,5.40
2022-11-24T07:35:08.533Z,6.28
2022-11-24T07:38:10.705Z,6.47
2022-11-24T07:41:14.969Z,6.18
2022-11-24T07:44:17.187Z,6.13
2022-11-24T07:47:19.353Z,6.18
2022-11-24T07:50:21.482Z,5.97
2022-11-24T07:53:23.594Z,6.25
2022-11-24T07:56:25.859Z,6.40
2022-11-24T07:59:28.024Z,6.28
2022-11-24T08:02:30.199Z,6.00
2022-11-24T08:05:32.334Z,6.05
2022-11-24T08:08:34.523Z,6.47
2022-11-24T08:11:36.901Z,5.63
2022-11-24T08:14:39.089Z,6.20
2022-11-24T08:17:41.245Z,6.15
2022-11-24T08:20:43.328Z,5.97
2022-11-24T08:23:45.709Z,6.55
2022-11-24T08:26:47.911Z,6.32
2022-11-24T08:29:50.147Z,6.40
2022-11-24T08:32:52.279Z,6.13
2022-11-24T08:35:54.402Z,6.88
2022-11-24T08:38:58.704Z,5.45
2022-11-24T08:42:00.909Z,7.25
2022-11-24T08:45:19.297Z,6.25
2022-11-24T08:48:22.829Z,6.18
2022-11-24T08:55:09.562Z,6.63
2022-11-24T08:58:11.728Z,6.85
2022-11-24T09:01:17.077Z,7.05
2022-11-24T09:04:19.480Z,6.88
2022-11-24T09:07:21.928Z,6.13
2022-11-24T09:10:24.152Z,6.70
2022-11-24T09:13:26.390Z,6.65
2022-11-24T09:16:29.259Z,6.50
2022-11-24T09:19:31.723Z,6.68
2022-11-24T09:22:34.192Z,7.05
2022-11-24T09:25:36.407Z,7.35
2022-11-24T09:28:38.628Z,7.22
2022-11-24T09:31:40.889Z,7.53
2022-11-24T09:34:43.045Z,7.40
2022-11-24T09:37:45.856Z,6.53
2022-11-24T09:45:09.373Z,7.10
2022-11-24T09:48:35.839Z,7.68
2022-11-24T09:51:39.393Z,7.50
2022-11-24T09:54:57.698Z,8.40
2022-11-24T09:58:14.883Z,7.90
2022-11-24T10:01:28.748Z,8.88
2022-11-24T10:04:43.279Z,9.05
2022-11-24T10:08:08.136Z,8.70
2022-11-24T10:11:16.179Z,9.32
2022-11-24T10:14:26.418Z,9.80
2022-11-24T10:17:34.397Z,9.25
2022-11-24T10:20:48.564Z,9.20
2022-11-24T10:23:50.731Z,8.52
2022-11-24T10:27:09.818Z,9.32
2022-11-24T10:30:19.339Z,9.48
2022-11-24T10:33:30.570Z,9.65
2022-11-24T10:36:40.375Z,8.93
2022-11-24T10:39:51.524Z,8.83
2022-11-24T10:42:55.910Z,8.18
2022-11-24T10:46:19.331Z,10.02
2022-11-24T10:49:29.551Z,9.43
2022-11-24T10:55:56.131Z,9.38
2022-11-24T10:59:32.278Z,8.32
2022-11-24T11:02:36.963Z,9.35
2022-11-24T11:05:44.455Z,9.23
2022-11-24T11:08:46.753Z,9.70
2022-11-24T11:11:52.771Z,9.93
2022-11-24T11:14:54.911Z,9.18
2022-11-24T11:18:01.606Z,9.70
2022-11-24T11:21:15.397Z,9.77
2022-11-24T11:24:18.870Z,8.93
2022-11-24T11:27:26.588Z,9.70
2022-11-24T11:34:06.194Z,9.10
2022-11-24T11:37:14.661Z,8.55
2022-11-24T11:40:19.794Z,9.43
2022-11-24T11:43:27.407Z,8.70
2022-11-24T11:46:32.761Z,8.38
2022-11-24T11:49:38.336Z,8.10
2022-11-24T11:53:07.509Z,8.45
2022-11-24T11:56:26.844Z,8.63
2022-11-24T11:59:52.034Z,8.23
2022-11-24T12:03:11.313Z,8.05
2022-11-24T12:06:42.787Z,7.63
2022-11-24T12:10:13.830Z,8.60
2022-11-24T12:13:53.497Z,7.55
2022-11-24T12:17:05.488Z,7.53
2022-11-24T12:20:36.788Z,6.90
2022-11-24T12:24:04.791Z,6.95
2022-11-24T12:27:38.431Z,7.00
2022-11-24T12:31:07.849Z,6.93
2022-11-24T12:34:26.871Z,7.17
2022-11-24T12:38:10.248Z,6.65
2022-11-24T12:41:42.183Z,6.55
2022-11-24T12:45:08.540Z,6.30
2022-11-24T12:48:18.840Z,6.72
2022-11-24T12:54:26.089Z,5.93
2022-11-24T12:57:34.989Z,6.63
2022-11-24T13:01:13.101Z,6.75
2022-11-24T13:04:32.800Z,6.80
2022-11-24T13:07:57.977Z,6.70
2022-11-24T13:11:21.818Z,6.72
2022-11-24T13:14:31.818Z,6.60
2022-11-24T13:17:52.394Z,6.43
2022-11-24T13:20:56.947Z,6.18
2022-11-24T13:24:02.220Z,6.53
2022-11-24T13:27:16.360Z,6.68
2022-11-24T13:30:33.651Z,7.20
2022-11-24T13:33:36.224Z,7.03
2022-11-24T13:36:53.729Z,6.45
2022-11-24T13:40:03.300Z,6.25
2022-11-24T13:43:05.511Z,6.55
2022-11-24T13:46:10.340Z,6.60
2022-11-24T13:49:14.603Z,7.07
2022-11-24T13:52:41.061Z,8.02
2022-11-24T13:56:16.441Z,6.70
2022-11-24T13:59:30.822Z,7.05
2022-11-24T14:02:34.840Z,6.88
2022-11-24T14:05:40.169Z,6.60
2022-11-24T14:08:45.617Z,6.60
2022-11-24T14:12:00.075Z,6.68
2022-11-24T14:15:23.586Z,6.40
2022-11-24T14:18:25.890Z,7.07
2022-11-24T14:21:42.764Z,6.93
2022-11-24T14:24:51.096Z,6.15
2022-11-24T14:27:53.529Z,6.85
2022-11-24T14:31:20.873Z,7.15
2022-11-24T14:34:25.690Z,6.43
2022-11-24T14:37:27.914Z,6.70
2022-11-24T14:40:50.765Z,7.68
2022-11-24T14:44:21.752Z,7.10
2022-11-24T14:47:36.532Z,6.78
2022-11-24T14:50:38.763Z,6.75
2022-11-24T14:53:50.961Z,7.10
2022-11-24T14:57:01.753Z,7.20
2022-11-24T15:00:41.919Z,6.35
2022-11-24T15:03:44.123Z,7.65
2022-11-24T15:06:49.014Z,6.10
2022-11-24T15:09:58.239Z,7.45
2022-11-24T15:13:02.776Z,6.20
2022-11-24T15:16:20.734Z,6.78
2022-11-24T15:19:27.210Z,7.97
2022-11-24T15:22:29.310Z,7.25
2022-11-24T15:25:34.022Z,6.85
2022-11-24T15:28:36.446Z,8.18
2022-11-24T15:31:40.048Z,7.50
2022-11-24T15:34:44.228Z,7.82
2022-11-24T15:37:46.386Z,7.55
2022-11-24T15:40:50.878Z,7.10
2022-11-24T15:43:59.021Z,7.78
2022-11-24T15:47:01.240Z,7.65
2022-11-24T15:50:03.950Z,8.13
2022-11-24T15:53:06.728Z,7.55
2022-11-24T15:56:15.263Z,8.00
2022-11-24T15:59:20.657Z,8.10
2022-11-24T16:02:23.718Z,7.93
2022-11-24T16:05:26.015Z,8.13
2022-11-24T16:08:28.244Z,8.05
2022-11-24T16:11:30.411Z,8.15
2022-11-24T16:14:32.714Z,8.00
2022-11-24T16:17:35.062Z,8.45
2022-11-24T16:20:37.288Z,8.80
2022-11-24T16:23:39.651Z,7.63
2022-11-24T16:26:41.760Z,8.27
2022-11-24T16:29:43.967Z,8.68
2022-11-24T16:32:51.946Z,8.15
2022-11-24T16:35:58.795Z,8.30
2022-11-24T16:39:01.044Z,8.60
2022-11-24T16:42:12.671Z,9.30
2022-11-24T16:45:16.028Z,8.93
2022-11-24T16:48:18.225Z,8.43
2022-11-24T16:51:35.385Z,8.82
2022-11-24T16:54:38.788Z,8.45
2022-11-24T16:57:49.457Z,9.50
2022-11-24T17:00:55.783Z,10.30
2022-11-24T17:03:58.266Z,10.32
2022-11-24T17:07:01.419Z,10.00
2022-11-24T17:10:04.046Z,9.60
2022-11-24T17:13:07.229Z,9.38
2022-11-24T17:16:18.644Z,9.25
2022-11-24T17:19:20.989Z,9.13
2022-11-24T17:22:24.185Z,9.38
2022-11-24T17:25:32.558Z,8.90
2022-11-24T17:28:35.805Z,8.98
2022-11-24T17:31:40.519Z,9.63
2022-11-24T17:34:59.550Z,9.18
2022-11-24T17:38:01.860Z,8.02
2022-11-24T17:41:05.180Z,9.02
2022-11-24T17:44:08.818Z,9.93
2022-11-24T17:47:10.971Z,8.27
2022-11-24T17:50:13.355Z,8.80
2022-11-24T17:53:15.610Z,8.30
2022-11-24T17:56:21.936Z,7.82
2022-11-24T17:59:24.208Z,8.18
2022-11-24T18:02:26.528Z,8.45
2022-11-24T18:05:28.786Z,9.85
2022-11-24T18:08:39.824Z,8.95
2022-11-24T18:11:42.019Z,9.02
2022-11-24T18:14:44.836Z,7.80
2022-11-24T18:17:47.005Z,8.45
2022-11-24T18:20:56.427Z,9.57
2022-11-24T18:23:58.560Z,9.23
2022-11-24T18:27:00.778Z,8.57
2022-11-24T18:30:03.952Z,8.52
2022-11-24T18:33:06.194Z,8.73
2022-11-24T18:36:10.341Z,8.18
2022-11-24T18:39:17.850Z,8.45
2022-11-24T18:42:21.014Z,8.80
2022-11-24T18:45:23.206Z,8.63
2022-11-24T18:48:26.481Z,9.00
2022-11-24T18:51:28.714Z,9.50
2022-11-24T18:54:30.911Z,9.63
2022-11-24T18:57:33.165Z,9.93
2022-11-24T19:00:35.292Z,9.30
2022-11-24T19:03:47.809Z,10.63
2022-11-24T19:06:50.794Z,11.55
2022-11-24T19:09:52.958Z,10.65
2022-11-24T19:12:56.211Z,12.05
2022-11-24T19:16:00.520Z,11.57
2022-11-24T19:19:03.125Z,11.93
2022-11-24T19:22:05.640Z,12.43
2022-11-24T19:25:08.334Z,12.52
2022-11-24T19:28:12.768Z,12.52
2022-11-24T19:31:17.353Z,12.27
2022-11-24T19:34:19.680Z,12.02
2022-11-24T19:37:23.607Z,14.45
2022-11-24T19:40:26.235Z,14.32
2022-11-24T19:43:28.707Z,13.43
2022-11-24T19:46:30.940Z,14.48
2022-11-24T19:49:33.070Z,15.45
2022-11-24T19:52:35.228Z,15.77
2022-11-24T19:55:37.374Z,16.23
2022-11-24T19:58:40.316Z,16.92
2022-11-24T20:01:42.766Z,16.75
2022-11-24T20:04:45.163Z,17.25
2022-11-24T20:07:47.426Z,17.38
2022-11-24T20:10:49.650Z,17.23
2022-11-24T20:13:52.091Z,16.10
2022-11-24T20:16:54.324Z,16.80
2022-11-24T20:19:57.627Z,16.08
2022-11-24T20:23:00.758Z,16.38
2022-11-24T20:26:08.143Z,16.17
2022-11-24T20:29:13.155Z,16.60
2022-11-24T20:32:19.577Z,15.75
2022-11-24T20:35:21.679Z,15.43
2022-11-24T20:38:23.950Z,16.45
2022-11-24T20:41:29.172Z,17.38
2022-11-24T20:44:31.570Z,17.15
2022-11-24T20:47:33.781Z,17.17
2022-11-24T20:50:38.151Z,16.17
2022-11-24T20:53:40.699Z,16.30
2022-11-24T20:56:44.284Z,16.90
2022-11-24T20:59:46.532Z,18.35
2022-11-24T21:02:48.957Z,17.35
2022-11-24T21:05:55.820Z,17.67
2022-11-24T21:09:03.419Z,19.33
2022-11-24T21:12:06.537Z,18.80
2022-11-24T21:15:09.354Z,18.75
2022-11-24T21:18:11.934Z,17.98
2022-11-24T21:21:14.725Z,20.42
2022-11-24T21:24:18.507Z,20.00
2022-11-24T21:27:20.676Z,18.10
2022-11-24T21:30:22.970Z,19.88
2022-11-24T21:33:25.087Z,19.25
2022-11-24T21:36:27.254Z,19.50
2022-11-24T21:39:29.428Z,20.02
2022-11-24T21:42:31.624Z,19.10
2022-11-24T21:45:34.858Z,18.98
2022-11-24T21:48:38.693Z,19.80
2022-11-24T21:51:40.828Z,19.05
2022-11-24T21:54:43.024Z,18.75
2022-11-24T21:57:45.396Z,18.73
2022-11-24T22:00:47.626Z,17.52
2022-11-24T22:03:50.321Z,17.90
2022-11-24T22:06:55.649Z,17.92
2022-11-24T22:09:57.977Z,19.00
2022-11-24T22:13:00.134Z,19.80
2022-11-24T22:16:07.444Z,19.63
2022-11-24T22:19:10.261Z,17.55
2022-11-24T22:22:12.407Z,18.70
2022-11-24T22:25:14.593Z,18.52
2022-11-24T22:28:16.729Z,18.45
2022-11-24T22:31:23.944Z,16.42
2022-11-24T22:34:26.192Z,15.40
2022-11-24T22:37:28.358Z,17.25
2022-11-24T22:40:30.606Z,16.33
2022-11-24T22:43:34.237Z,16.80
2022-11-24T22:46:36.464Z,16.45
2022-11-24T22:49:38.645Z,16.95
2022-11-24T22:52:40.886Z,17.25
2022-11-24T22:55:43.098Z,16.00
2022-11-24T22:58:45.368Z,16.33
2022-11-24T23:01:47.595Z,17.42
2022-11-24T23:04:49.776Z,15.63
2022-11-24T23:07:52.135Z,16.73
2022-11-24T23:11:02.607Z,16.42
2022-11-24T23:14:12.144Z,16.33
2022-11-24T23:17:14.283Z,16.17
2022-11-24T23:20:16.557Z,15.77
2022-11-24T23:23:18.783Z,16.67
2022-11-24T23:26:29.899Z,16.35
2022-11-24T23:29:32.159Z,14.50
2022-11-24T23:32:34.364Z,16.23
2022-11-24T23:35:36.536Z,14.88
2022-11-24T23:38:39.299Z,15.73
2022-11-24T23:41:41.674Z,15.40
2022-11-24T23:44:43.860Z,16.35
2022-11-24T23:47:46.089Z,16.20
2022-11-24T23:50:48.234Z,15.95
2022-11-24T23:53:51.019Z,15.65
2022-11-24T23:56:53.284Z,16.00
2022-11-24T23:59:55.462Z,15.15
